sensor_id;sensor_type;location;lat;lon;timestamp;P1;durP1;ratioP1;P2;durP2;ratioP2
14251;SDS011;7210;51.502;10.722;2023-07-16T00:01:41;5.37;;;4.27;;
14251;SDS011;7210;51.502;10.722;2023-07-16T00:04:09;4.90;;;3.97;;
14251;SDS011;7210;51.502;10.722;2023-07-16T00:06:38;5.83;;;4.47;;
14251;SDS011;7210;51.502;10.722;2023-07-16T00:09:17;5.60;;;4.43;;
14251;SDS011;7210;51.502;10.722;2023-07-16T00:11:44;4.50;;;4.10;;
14251;SDS011;7210;51.502;10.722;2023-07-16T00:14:11;5.10;;;4.27;;
14251;SDS011;7210;51.502;10.722;2023-07-16T00:16:39;5.80;;;4.33;;
14251;SDS011;7210;51.502;10.722;2023-07-16T00:19:17;4.90;;;4.47;;
14251;SDS011;7210;51.502;10.722;2023-07-16T00:22:00;4.60;;;4.13;;
14251;SDS011;7210;51.502;10.722;2023-07-16T00:24:28;4.60;;;4.10;;
14251;SDS011;7210;51.502;10.722;2023-07-16T00:26:56;5.33;;;4.23;;
14251;SDS011;7210;51.502;10.722;2023-07-16T00:29:24;6.57;;;4.30;;
14251;SDS011;7210;51.502;10.722;2023-07-16T00:31:53;6.60;;;4.23;;
14251;SDS011;7210;51.502;10.722;2023-07-16T00:34:29;4.93;;;4.17;;
14251;SDS011;7210;51.502;10.722;2023-07-16T00:36:56;5.87;;;3.70;;
14251;SDS011;7210;51.502;10.722;2023-07-16T00:39:28;4.43;;;4.03;;
14251;SDS011;7210;51.502;10.722;2023-07-16T00:41:59;5.10;;;4.00;;
14251;SDS011;7210;51.502;10.722;2023-07-16T00:44:26;6.13;;;4.00;;
14251;SDS011;7210;51.502;10.722;2023-07-16T00:46:53;4.40;;;3.80;;
14251;SDS011;7210;51.502;10.722;2023-07-16T00:49:21;5.20;;;4.00;;
14251;SDS011;7210;51.502;10.722;2023-07-16T00:51:53;6.83;;;4.27;;
14251;SDS011;7210;51.502;10.722;2023-07-16T00:54:21;4.87;;;4.47;;
14251;SDS011;7210;51.502;10.722;2023-07-16T00:56:54;6.13;;;4.47;;
14251;SDS011;7210;51.502;10.722;2023-07-16T00:59:22;4.77;;;4.03;;
14251;SDS011;7210;51.502;10.722;2023-07-16T01:01:49;4.57;;;4.10;;
14251;SDS011;7210;51.502;10.722;2023-07-16T01:04:17;5.37;;;3.80;;
14251;SDS011;7210;51.502;10.722;2023-07-16T01:06:45;4.80;;;4.10;;
14251;SDS011;7210;51.502;10.722;2023-07-16T01:09:23;4.63;;;3.97;;
14251;SDS011;7210;51.502;10.722;2023-07-16T01:11:52;5.70;;;3.70;;
14251;SDS011;7210;51.502;10.722;2023-07-16T01:14:23;4.10;;;3.70;;
14251;SDS011;7210;51.502;10.722;2023-07-16T01:16:53;5.10;;;4.27;;
14251;SDS011;7210;51.502;10.722;2023-07-16T01:19:24;5.10;;;4.00;;
14251;SDS011;7210;51.502;10.722;2023-07-16T01:21:55;4.70;;;4.17;;
14251;SDS011;7210;51.502;10.722;2023-07-16T01:24:59;4.33;;;3.83;;
14251;SDS011;7210;51.502;10.722;2023-07-16T01:31:00;3.77;;;3.47;;
14251;SDS011;7210;51.502;10.722;2023-07-16T01:33:35;5.03;;;4.53;;
14251;SDS011;7210;51.502;10.722;2023-07-16T01:36:07;5.20;;;4.10;;
14251;SDS011;7210;51.502;10.722;2023-07-16T01:38:35;4.07;;;3.63;;
14251;SDS011;7210;51.502;10.722;2023-07-16T01:41:03;4.03;;;3.63;;
14251;SDS011;7210;51.502;10.722;2023-07-16T01:43:31;4.40;;;4.00;;
14251;SDS011;7210;51.502;10.722;2023-07-16T01:46:00;4.27;;;3.73;;
14251;SDS011;7210;51.502;10.722;2023-07-16T01:48:30;7.50;;;3.87;;
14251;SDS011;7210;51.502;10.722;2023-07-16T01:51:11;8.63;;;3.87;;
14251;SDS011;7210;51.502;10.722;2023-07-16T01:53:39;4.50;;;4.10;;
14251;SDS011;7210;51.502;10.722;2023-07-16T01:56:11;4.30;;;3.90;;
14251;SDS011;7210;51.502;10.722;2023-07-16T01:58:41;3.90;;;3.50;;
14251;SDS011;7210;51.502;10.722;2023-07-16T02:01:09;4.03;;;3.63;;
14251;SDS011;7210;51.502;10.722;2023-07-16T02:03:47;5.00;;;3.90;;
14251;SDS011;7210;51.502;10.722;2023-07-16T02:06:14;5.13;;;4.27;;
14251;SDS011;7210;51.502;10.722;2023-07-16T02:08:47;5.57;;;4.43;;
14251;SDS011;7210;51.502;10.722;2023-07-16T02:11:14;5.63;;;4.17;;
14251;SDS011;7210;51.502;10.722;2023-07-16T02:13:41;5.10;;;4.47;;
14251;SDS011;7210;51.502;10.722;2023-07-16T02:16:12;4.23;;;3.80;;
14251;SDS011;7210;51.502;10.722;2023-07-16T02:18:40;4.80;;;4.30;;
14251;SDS011;7210;51.502;10.722;2023-07-16T02:21:07;5.83;;;4.63;;
14251;SDS011;7210;51.502;10.722;2023-07-16T02:23:34;5.80;;;4.30;;
14251;SDS011;7210;51.502;10.722;2023-07-16T02:26:17;4.50;;;3.87;;
14251;SDS011;7210;51.502;10.722;2023-07-16T02:28:47;4.13;;;3.70;;
14251;SDS011;7210;51.502;10.722;2023-07-16T02:31:25;4.30;;;3.73;;
14251;SDS011;7210;51.502;10.722;2023-07-16T02:33:52;7.57;;;4.17;;
14251;SDS011;7210;51.502;10.722;2023-07-16T02:36:19;5.47;;;4.27;;
14251;SDS011;7210;51.502;10.722;2023-07-16T02:38:48;4.80;;;3.80;;
14251;SDS011;7210;51.502;10.722;2023-07-16T02:41:15;8.93;;;3.73;;
14251;SDS011;7210;51.502;10.722;2023-07-16T02:43:45;5.87;;;3.67;;
14251;SDS011;7210;51.502;10.722;2023-07-16T02:46:12;7.53;;;3.63;;
14251;SDS011;7210;51.502;10.722;2023-07-16T02:48:41;9.67;;;3.83;;
14251;SDS011;7210;51.502;10.722;2023-07-16T02:51:09;6.20;;;3.70;;
14251;SDS011;7210;51.502;10.722;2023-07-16T02:53:53;6.67;;;3.77;;
14251;SDS011;7210;51.502;10.722;2023-07-16T02:56:20;5.17;;;3.43;;
14251;SDS011;7210;51.502;10.722;2023-07-16T02:58:48;4.33;;;3.77;;
14251;SDS011;7210;51.502;10.722;2023-07-16T03:01:15;6.40;;;3.67;;
14251;SDS011;7210;51.502;10.722;2023-07-16T03:03:44;6.13;;;3.60;;
14251;SDS011;7210;51.502;10.722;2023-07-16T03:06:17;4.97;;;3.33;;
14251;SDS011;7210;51.502;10.722;2023-07-16T03:08:44;5.00;;;3.30;;
14251;SDS011;7210;51.502;10.722;2023-07-16T03:11:12;3.53;;;3.23;;
14251;SDS011;7210;51.502;10.722;2023-07-16T03:13:47;5.03;;;3.23;;
14251;SDS011;7210;51.502;10.722;2023-07-16T03:16:15;3.70;;;2.97;;
14251;SDS011;7210;51.502;10.722;2023-07-16T03:18:48;5.30;;;3.17;;
14251;SDS011;7210;51.502;10.722;2023-07-16T03:21:17;4.57;;;3.33;;
14251;SDS011;7210;51.502;10.722;2023-07-16T03:23:44;4.20;;;2.80;;
14251;SDS011;7210;51.502;10.722;2023-07-16T03:26:17;4.00;;;3.10;;
14251;SDS011;7210;51.502;10.722;2023-07-16T03:28:44;5.57;;;2.93;;
14251;SDS011;7210;51.502;10.722;2023-07-16T03:31:13;6.40;;;3.27;;
14251;SDS011;7210;51.502;10.722;2023-07-16T03:33:43;6.73;;;3.93;;
14251;SDS011;7210;51.502;10.722;2023-07-16T03:36:19;3.80;;;3.33;;
14251;SDS011;7210;51.502;10.722;2023-07-16T03:38:59;4.93;;;2.90;;
14251;SDS011;7210;51.502;10.722;2023-07-16T03:41:26;5.77;;;3.53;;
14251;SDS011;7210;51.502;10.722;2023-07-16T03:43:54;6.13;;;3.00;;
14251;SDS011;7210;51.502;10.722;2023-07-16T03:46:21;4.33;;;2.63;;
14251;SDS011;7210;51.502;10.722;2023-07-16T03:48:49;3.63;;;2.80;;
14251;SDS011;7210;51.502;10.722;2023-07-16T03:51:19;5.07;;;2.80;;
14251;SDS011;7210;51.502;10.722;2023-07-16T03:53:46;6.60;;;2.90;;
14251;SDS011;7210;51.502;10.722;2023-07-16T03:56:17;3.97;;;2.77;;
14251;SDS011;7210;51.502;10.722;2023-07-16T03:58:47;5.77;;;3.10;;
14251;SDS011;7210;51.502;10.722;2023-07-16T04:01:16;5.33;;;2.70;;
14251;SDS011;7210;51.502;10.722;2023-07-16T04:03:47;4.57;;;3.03;;
14251;SDS011;7210;51.502;10.722;2023-07-16T04:06:14;4.80;;;3.00;;
14251;SDS011;7210;51.502;10.722;2023-07-16T04:08:43;5.43;;;2.80;;
14251;SDS011;7210;51.502;10.722;2023-07-16T04:11:10;4.50;;;2.60;;
14251;SDS011;7210;51.502;10.722;2023-07-16T04:13:38;7.23;;;3.00;;
14251;SDS011;7210;51.502;10.722;2023-07-16T04:16:11;4.57;;;2.50;;
14251;SDS011;7210;51.502;10.722;2023-07-16T04:18:38;3.57;;;2.87;;
14251;SDS011;7210;51.502;10.722;2023-07-16T04:21:06;4.87;;;2.83;;
14251;SDS011;7210;51.502;10.722;2023-07-16T04:23:33;5.03;;;2.83;;
14251;SDS011;7210;51.502;10.722;2023-07-16T04:26:18;3.93;;;2.80;;
14251;SDS011;7210;51.502;10.722;2023-07-16T04:28:46;4.50;;;2.73;;
14251;SDS011;7210;51.502;10.722;2023-07-16T04:31:17;4.60;;;2.70;;
14251;SDS011;7210;51.502;10.722;2023-07-16T04:33:44;6.10;;;2.73;;
14251;SDS011;7210;51.502;10.722;2023-07-16T04:36:11;5.40;;;3.30;;
14251;SDS011;7210;51.502;10.722;2023-07-16T04:38:39;2.73;;;2.53;;
14251;SDS011;7210;51.502;10.722;2023-07-16T04:41:18;4.07;;;2.40;;
14251;SDS011;7210;51.502;10.722;2023-07-16T04:43:53;4.63;;;2.90;;
14251;SDS011;7210;51.502;10.722;2023-07-16T04:46:35;6.30;;;3.00;;
14251;SDS011;7210;51.502;10.722;2023-07-16T04:49:02;4.70;;;2.60;;
14251;SDS011;7210;51.502;10.722;2023-07-16T04:51:31;6.37;;;2.73;;
14251;SDS011;7210;51.502;10.722;2023-07-16T04:53:59;6.90;;;2.50;;
14251;SDS011;7210;51.502;10.722;2023-07-16T04:56:27;4.33;;;2.80;;
14251;SDS011;7210;51.502;10.722;2023-07-16T04:58:55;4.10;;;2.40;;
14251;SDS011;7210;51.502;10.722;2023-07-16T05:01:22;4.10;;;2.50;;
14251;SDS011;7210;51.502;10.722;2023-07-16T05:03:59;5.90;;;2.50;;
14251;SDS011;7210;51.502;10.722;2023-07-16T05:06:26;4.03;;;2.30;;
14251;SDS011;7210;51.502;10.722;2023-07-16T05:08:54;4.23;;;2.40;;
14251;SDS011;7210;51.502;10.722;2023-07-16T05:11:21;6.03;;;2.30;;
14251;SDS011;7210;51.502;10.722;2023-07-16T05:13:52;3.37;;;2.43;;
14251;SDS011;7210;51.502;10.722;2023-07-16T05:16:23;4.13;;;2.37;;
14251;SDS011;7210;51.502;10.722;2023-07-16T05:18:53;4.57;;;2.17;;
14251;SDS011;7210;51.502;10.722;2023-07-16T05:21:23;9.10;;;2.27;;
14251;SDS011;7210;51.502;10.722;2023-07-16T05:23:50;4.53;;;2.33;;
14251;SDS011;7210;51.502;10.722;2023-07-16T05:26:17;4.20;;;1.90;;
14251;SDS011;7210;51.502;10.722;2023-07-16T05:28:45;4.03;;;2.37;;
14251;SDS011;7210;51.502;10.722;2023-07-16T05:31:18;4.13;;;2.23;;
14251;SDS011;7210;51.502;10.722;2023-07-16T05:33:46;2.63;;;2.03;;
14251;SDS011;7210;51.502;10.722;2023-07-16T05:36:13;4.17;;;2.20;;
14251;SDS011;7210;51.502;10.722;2023-07-16T05:38:41;4.53;;;2.00;;
14251;SDS011;7210;51.502;10.722;2023-07-16T05:41:08;5.77;;;2.40;;
14251;SDS011;7210;51.502;10.722;2023-07-16T05:43:35;3.70;;;1.90;;
14251;SDS011;7210;51.502;10.722;2023-07-16T05:46:03;5.07;;;1.70;;
14251;SDS011;7210;51.502;10.722;2023-07-16T05:48:33;4.90;;;2.23;;
14251;SDS011;7210;51.502;10.722;2023-07-16T05:51:00;2.73;;;1.87;;
14251;SDS011;7210;51.502;10.722;2023-07-16T05:53:28;2.67;;;1.90;;
14251;SDS011;7210;51.502;10.722;2023-07-16T05:55:59;2.97;;;2.00;;
14251;SDS011;7210;51.502;10.722;2023-07-16T05:58:29;3.27;;;1.83;;
14251;SDS011;7210;51.502;10.722;2023-07-16T06:00:56;3.67;;;1.80;;
14251;SDS011;7210;51.502;10.722;2023-07-16T06:03:29;4.90;;;2.30;;
14251;SDS011;7210;51.502;10.722;2023-07-16T06:06:00;3.33;;;1.87;;
14251;SDS011;7210;51.502;10.722;2023-07-16T06:08:28;2.87;;;1.90;;
14251;SDS011;7210;51.502;10.722;2023-07-16T06:13:59;4.67;;;2.00;;
14251;SDS011;7210;51.502;10.722;2023-07-16T06:16:27;3.60;;;2.00;;
14251;SDS011;7210;51.502;10.722;2023-07-16T06:18:54;4.90;;;1.90;;
14251;SDS011;7210;51.502;10.722;2023-07-16T06:21:25;4.30;;;1.90;;
14251;SDS011;7210;51.502;10.722;2023-07-16T06:23:52;4.17;;;2.20;;
14251;SDS011;7210;51.502;10.722;2023-07-16T06:26:20;3.47;;;1.87;;
14251;SDS011;7210;51.502;10.722;2023-07-16T06:28:47;3.60;;;2.10;;
14251;SDS011;7210;51.502;10.722;2023-07-16T06:31:15;4.80;;;2.00;;
14251;SDS011;7210;51.502;10.722;2023-07-16T06:33:47;3.30;;;2.07;;
14251;SDS011;7210;51.502;10.722;2023-07-16T06:36:17;3.53;;;2.00;;
14251;SDS011;7210;51.502;10.722;2023-07-16T06:38:48;6.20;;;1.90;;
14251;SDS011;7210;51.502;10.722;2023-07-16T06:41:17;4.17;;;2.00;;
14251;SDS011;7210;51.502;10.722;2023-07-16T06:43:45;5.33;;;2.20;;
14251;SDS011;7210;51.502;10.722;2023-07-16T06:46:12;3.57;;;1.97;;
14251;SDS011;7210;51.502;10.722;2023-07-16T06:48:39;4.47;;;2.00;;
14251;SDS011;7210;51.502;10.722;2023-07-16T06:51:06;4.30;;;1.60;;
14251;SDS011;7210;51.502;10.722;2023-07-16T06:53:41;6.03;;;1.60;;
14251;SDS011;7210;51.502;10.722;2023-07-16T06:56:10;5.33;;;1.90;;
14251;SDS011;7210;51.502;10.722;2023-07-16T06:58:47;3.57;;;1.70;;
14251;SDS011;7210;51.502;10.722;2023-07-16T07:01:14;4.63;;;1.50;;
14251;SDS011;7210;51.502;10.722;2023-07-16T07:03:59;6.10;;;1.80;;
14251;SDS011;7210;51.502;10.722;2023-07-16T07:06:27;2.67;;;1.70;;
14251;SDS011;7210;51.502;10.722;2023-07-16T07:08:54;3.07;;;1.80;;
14251;SDS011;7210;51.502;10.722;2023-07-16T07:11:25;2.10;;;1.63;;
14251;SDS011;7210;51.502;10.722;2023-07-16T07:13:53;2.23;;;1.80;;
14251;SDS011;7210;51.502;10.722;2023-07-16T07:16:22;3.87;;;1.80;;
14251;SDS011;7210;51.502;10.722;2023-07-16T07:18:49;5.20;;;1.63;;
14251;SDS011;7210;51.502;10.722;2023-07-16T07:24:11;3.57;;;1.60;;
14251;SDS011;7210;51.502;10.722;2023-07-16T07:26:40;3.97;;;1.87;;
14251;SDS011;7210;51.502;10.722;2023-07-16T07:29:08;4.63;;;2.20;;
14251;SDS011;7210;51.502;10.722;2023-07-16T07:31:35;7.53;;;2.23;;
14251;SDS011;7210;51.502;10.722;2023-07-16T07:34:05;4.27;;;1.97;;
14251;SDS011;7210;51.502;10.722;2023-07-16T07:36:32;3.23;;;2.00;;
14251;SDS011;7210;51.502;10.722;2023-07-16T07:39:05;2.77;;;1.57;;
14251;SDS011;7210;51.502;10.722;2023-07-16T07:41:35;3.33;;;1.70;;
14251;SDS011;7210;51.502;10.722;2023-07-16T07:44:04;5.37;;;1.70;;
14251;SDS011;7210;51.502;10.722;2023-07-16T07:46:31;2.43;;;1.50;;
14251;SDS011;7210;51.502;10.722;2023-07-16T07:48:58;5.00;;;2.20;;
14251;SDS011;7210;51.502;10.722;2023-07-16T07:51:26;4.63;;;1.93;;
14251;SDS011;7210;51.502;10.722;2023-07-16T07:53:54;4.03;;;2.17;;
14251;SDS011;7210;51.502;10.722;2023-07-16T07:56:29;4.33;;;2.00;;
14251;SDS011;7210;51.502;10.722;2023-07-16T07:58:59;5.17;;;2.00;;
14251;SDS011;7210;51.502;10.722;2023-07-16T08:01:30;4.40;;;1.80;;
14251;SDS011;7210;51.502;10.722;2023-07-16T08:03:58;4.00;;;2.13;;
14251;SDS011;7210;51.502;10.722;2023-07-16T08:09:26;3.73;;;1.70;;
14251;SDS011;7210;51.502;10.722;2023-07-16T08:11:54;3.40;;;2.07;;
14251;SDS011;7210;51.502;10.722;2023-07-16T08:14:21;3.20;;;1.63;;
14251;SDS011;7210;51.502;10.722;2023-07-16T08:16:55;4.73;;;1.90;;
14251;SDS011;7210;51.502;10.722;2023-07-16T08:19:22;2.60;;;1.77;;
14251;SDS011;7210;51.502;10.722;2023-07-16T08:21:49;4.40;;;1.90;;
14251;SDS011;7210;51.502;10.722;2023-07-16T08:27:44;5.87;;;2.17;;
14251;SDS011;7210;51.502;10.722;2023-07-16T08:30:11;7.20;;;2.13;;
14251;SDS011;7210;51.502;10.722;2023-07-16T08:32:42;3.07;;;1.60;;
14251;SDS011;7210;51.502;10.722;2023-07-16T08:35:11;2.27;;;1.57;;
14251;SDS011;7210;51.502;10.722;2023-07-16T08:37:41;7.63;;;1.70;;
14251;SDS011;7210;51.502;10.722;2023-07-16T08:40:10;4.37;;;1.63;;
14251;SDS011;7210;51.502;10.722;2023-07-16T08:45:38;5.07;;;1.97;;
14251;SDS011;7210;51.502;10.722;2023-07-16T08:48:13;4.57;;;2.00;;
14251;SDS011;7210;51.502;10.722;2023-07-16T08:50:40;3.80;;;1.90;;
14251;SDS011;7210;51.502;10.722;2023-07-16T08:53:17;4.17;;;1.73;;
14251;SDS011;7210;51.502;10.722;2023-07-16T08:55:46;5.23;;;2.10;;
14251;SDS011;7210;51.502;10.722;2023-07-16T08:58:14;4.50;;;2.10;;
14251;SDS011;7210;51.502;10.722;2023-07-16T09:00:42;5.33;;;2.00;;
14251;SDS011;7210;51.502;10.722;2023-07-16T09:03:12;4.40;;;1.60;;
14251;SDS011;7210;51.502;10.722;2023-07-16T09:05:53;5.10;;;1.80;;
14251;SDS011;7210;51.502;10.722;2023-07-16T09:08:21;3.67;;;2.07;;
14251;SDS011;7210;51.502;10.722;2023-07-16T09:10:59;3.33;;;1.80;;
14251;SDS011;7210;51.502;10.722;2023-07-16T09:13:26;3.03;;;2.00;;
14251;SDS011;7210;51.502;10.722;2023-07-16T09:15:56;2.50;;;2.17;;
14251;SDS011;7210;51.502;10.722;2023-07-16T09:18:31;4.17;;;1.90;;
14251;SDS011;7210;51.502;10.722;2023-07-16T09:20:59;4.23;;;2.00;;
14251;SDS011;7210;51.502;10.722;2023-07-16T09:23:29;4.37;;;1.90;;
14251;SDS011;7210;51.502;10.722;2023-07-16T09:25:58;3.95;;;2.00;;
14251;SDS011;7210;51.502;10.722;2023-07-16T09:28:30;6.25;;;2.28;;
14251;SDS011;7210;51.502;10.722;2023-07-16T09:31:03;4.30;;;1.98;;
14251;SDS011;7210;51.502;10.722;2023-07-16T09:33:37;3.13;;;2.17;;
14251;SDS011;7210;51.502;10.722;2023-07-16T09:36:05;3.92;;;2.05;;
14251;SDS011;7210;51.502;10.722;2023-07-16T09:38:33;3.70;;;1.88;;
14251;SDS011;7210;51.502;10.722;2023-07-16T09:41:05;5.05;;;2.10;;
14251;SDS011;7210;51.502;10.722;2023-07-16T09:43:33;4.15;;;2.30;;
14251;SDS011;7210;51.502;10.722;2023-07-16T09:46:05;4.88;;;2.08;;
14251;SDS011;7210;51.502;10.722;2023-07-16T09:48:36;3.25;;;1.75;;
14251;SDS011;7210;51.502;10.722;2023-07-16T09:51:04;3.70;;;2.10;;
14251;SDS011;7210;51.502;10.722;2023-07-16T09:53:38;6.50;;;1.98;;
14251;SDS011;7210;51.502;10.722;2023-07-16T09:56:11;5.07;;;2.20;;
14251;SDS011;7210;51.502;10.722;2023-07-16T09:58:40;7.20;;;2.22;;
14251;SDS011;7210;51.502;10.722;2023-07-16T10:01:17;4.93;;;2.03;;
14251;SDS011;7210;51.502;10.722;2023-07-16T10:03:49;3.55;;;2.15;;
14251;SDS011;7210;51.502;10.722;2023-07-16T10:06:17;3.85;;;2.10;;
14251;SDS011;7210;51.502;10.722;2023-07-16T10:08:48;3.75;;;2.08;;
14251;SDS011;7210;51.502;10.722;2023-07-16T10:11:17;3.55;;;2.05;;
14251;SDS011;7210;51.502;10.722;2023-07-16T10:13:50;4.30;;;2.30;;
14251;SDS011;7210;51.502;10.722;2023-07-16T10:16:23;2.97;;;1.85;;
14251;SDS011;7210;51.502;10.722;2023-07-16T10:19:06;4.85;;;2.20;;
14251;SDS011;7210;51.502;10.722;2023-07-16T10:21:36;2.95;;;1.95;;
14251;SDS011;7210;51.502;10.722;2023-07-16T10:24:04;4.63;;;2.40;;
14251;SDS011;7210;51.502;10.722;2023-07-16T10:26:53;2.55;;;1.80;;
14251;SDS011;7210;51.502;10.722;2023-07-16T10:29:20;2.60;;;1.88;;
14251;SDS011;7210;51.502;10.722;2023-07-16T10:31:48;6.35;;;2.10;;
14251;SDS011;7210;51.502;10.722;2023-07-16T10:34:21;4.85;;;2.05;;
14251;SDS011;7210;51.502;10.722;2023-07-16T10:36:50;4.35;;;2.10;;
14251;SDS011;7210;51.502;10.722;2023-07-16T10:39:23;2.72;;;1.92;;
14251;SDS011;7210;51.502;10.722;2023-07-16T10:41:50;4.85;;;1.98;;
14251;SDS011;7210;51.502;10.722;2023-07-16T10:44:19;3.88;;;1.95;;
14251;SDS011;7210;51.502;10.722;2023-07-16T10:46:48;4.45;;;2.20;;
14251;SDS011;7210;51.502;10.722;2023-07-16T10:49:27;3.22;;;1.95;;
14251;SDS011;7210;51.502;10.722;2023-07-16T10:51:55;7.53;;;2.28;;
14251;SDS011;7210;51.502;10.722;2023-07-16T10:54:24;3.88;;;2.03;;
14251;SDS011;7210;51.502;10.722;2023-07-16T10:56:51;4.80;;;2.20;;
14251;SDS011;7210;51.502;10.722;2023-07-16T10:59:23;3.50;;;2.17;;
14251;SDS011;7210;51.502;10.722;2023-07-16T11:01:51;2.38;;;1.90;;
14251;SDS011;7210;51.502;10.722;2023-07-16T11:04:18;2.53;;;2.10;;
14251;SDS011;7210;51.502;10.722;2023-07-16T11:06:47;3.30;;;2.50;;
14251;SDS011;7210;51.502;10.722;2023-07-16T11:09:17;3.42;;;1.88;;
14251;SDS011;7210;51.502;10.722;2023-07-16T11:11:44;3.63;;;2.45;;
14251;SDS011;7210;51.502;10.722;2023-07-16T11:14:11;2.35;;;2.10;;
14251;SDS011;7210;51.502;10.722;2023-07-16T11:16:41;6.05;;;2.63;;
14251;SDS011;7210;51.502;10.722;2023-07-16T11:19:08;4.20;;;2.15;;
14251;SDS011;7210;51.502;10.722;2023-07-16T11:21:36;4.47;;;2.30;;
14251;SDS011;7210;51.502;10.722;2023-07-16T11:24:09;2.72;;;2.00;;
14251;SDS011;7210;51.502;10.722;2023-07-16T11:26:39;5.30;;;2.00;;
14251;SDS011;7210;51.502;10.722;2023-07-16T11:29:16;5.40;;;2.58;;
14251;SDS011;7210;51.502;10.722;2023-07-16T11:37:29;3.15;;;2.28;;
14251;SDS011;7210;51.502;10.722;2023-07-16T11:40:00;4.63;;;2.50;;
14251;SDS011;7210;51.502;10.722;2023-07-16T11:42:35;4.65;;;2.45;;
14251;SDS011;7210;51.502;10.722;2023-07-16T11:45:14;4.22;;;2.20;;
14251;SDS011;7210;51.502;10.722;2023-07-16T11:47:43;5.68;;;2.30;;
14251;SDS011;7210;51.502;10.722;2023-07-16T11:50:10;5.95;;;2.50;;
14251;SDS011;7210;51.502;10.722;2023-07-16T11:52:38;6.03;;;2.50;;
14251;SDS011;7210;51.502;10.722;2023-07-16T11:55:08;4.10;;;2.60;;
14251;SDS011;7210;51.502;10.722;2023-07-16T11:57:47;2.60;;;2.13;;
14251;SDS011;7210;51.502;10.722;2023-07-16T12:00:14;3.80;;;2.50;;
14251;SDS011;7210;51.502;10.722;2023-07-16T12:02:43;3.35;;;2.50;;
14251;SDS011;7210;51.502;10.722;2023-07-16T12:05:16;3.40;;;2.30;;
14251;SDS011;7210;51.502;10.722;2023-07-16T12:07:47;3.40;;;2.28;;
14251;SDS011;7210;51.502;10.722;2023-07-16T12:10:16;3.28;;;2.40;;
14251;SDS011;7210;51.502;10.722;2023-07-16T12:12:43;7.30;;;2.75;;
14251;SDS011;7210;51.502;10.722;2023-07-16T12:15:11;4.03;;;2.50;;
14251;SDS011;7210;51.502;10.722;2023-07-16T12:17:38;5.55;;;2.45;;
14251;SDS011;7210;51.502;10.722;2023-07-16T12:20:06;3.65;;;2.58;;
14251;SDS011;7210;51.502;10.722;2023-07-16T12:22:34;4.68;;;2.45;;
14251;SDS011;7210;51.502;10.722;2023-07-16T12:25:19;3.95;;;2.42;;
14251;SDS011;7210;51.502;10.722;2023-07-16T12:27:46;4.45;;;2.97;;
14251;SDS011;7210;51.502;10.722;2023-07-16T12:30:17;4.20;;;2.53;;
14251;SDS011;7210;51.502;10.722;2023-07-16T12:32:44;6.22;;;2.90;;
14251;SDS011;7210;51.502;10.722;2023-07-16T12:35:12;3.72;;;2.55;;
14251;SDS011;7210;51.502;10.722;2023-07-16T12:37:39;5.60;;;2.60;;
14251;SDS011;7210;51.502;10.722;2023-07-16T12:40:07;2.53;;;2.25;;
14251;SDS011;7210;51.502;10.722;2023-07-16T12:42:36;5.93;;;2.90;;
14251;SDS011;7210;51.502;10.722;2023-07-16T12:45:17;7.15;;;2.60;;
14251;SDS011;7210;51.502;10.722;2023-07-16T12:47:44;4.72;;;2.58;;
14251;SDS011;7210;51.502;10.722;2023-07-16T12:50:17;3.50;;;2.70;;
14251;SDS011;7210;51.502;10.722;2023-07-16T12:52:44;5.28;;;2.92;;
14251;SDS011;7210;51.502;10.722;2023-07-16T12:55:12;4.70;;;2.70;;
14251;SDS011;7210;51.502;10.722;2023-07-16T12:57:43;3.50;;;2.42;;
14251;SDS011;7210;51.502;10.722;2023-07-16T13:00:10;4.68;;;2.40;;
14251;SDS011;7210;51.502;10.722;2023-07-16T13:02:41;5.15;;;2.53;;
14251;SDS011;7210;51.502;10.722;2023-07-16T13:05:08;2.45;;;2.25;;
14251;SDS011;7210;51.502;10.722;2023-07-16T13:07:53;2.60;;;2.40;;
14251;SDS011;7210;51.502;10.722;2023-07-16T13:10:20;6.10;;;2.50;;
14251;SDS011;7210;51.502;10.722;2023-07-16T13:12:50;3.83;;;2.63;;
14251;SDS011;7210;51.502;10.722;2023-07-16T13:15:17;4.28;;;2.65;;
14251;SDS011;7210;51.502;10.722;2023-07-16T13:17:45;5.18;;;2.85;;
14251;SDS011;7210;51.502;10.722;2023-07-16T13:20:13;3.65;;;2.20;;
14251;SDS011;7210;51.502;10.722;2023-07-16T13:22:53;2.78;;;2.50;;
14251;SDS011;7210;51.502;10.722;2023-07-16T13:25:21;3.65;;;2.80;;
14251;SDS011;7210;51.502;10.722;2023-07-16T13:27:56;5.35;;;2.80;;
14251;SDS011;7210;51.502;10.722;2023-07-16T13:33:17;4.55;;;2.70;;
14251;SDS011;7210;51.502;10.722;2023-07-16T13:35:45;4.70;;;2.78;;
14251;SDS011;7210;51.502;10.722;2023-07-16T13:38:12;4.40;;;2.90;;
14251;SDS011;7210;51.502;10.722;2023-07-16T13:40:41;3.45;;;2.83;;
14251;SDS011;7210;51.502;10.722;2023-07-16T13:43:10;2.97;;;2.55;;
14251;SDS011;7210;51.502;10.722;2023-07-16T13:45:38;2.78;;;2.45;;
14251;SDS011;7210;51.502;10.722;2023-07-16T13:48:11;4.30;;;2.45;;
14251;SDS011;7210;51.502;10.722;2023-07-16T13:50:41;7.78;;;2.85;;
14251;SDS011;7210;51.502;10.722;2023-07-16T13:53:09;2.97;;;2.65;;
14251;SDS011;7210;51.502;10.722;2023-07-16T13:55:36;4.40;;;3.20;;
14251;SDS011;7210;51.502;10.722;2023-07-16T13:58:05;3.28;;;2.83;;
14251;SDS011;7210;51.502;10.722;2023-07-16T14:00:34;4.20;;;2.60;;
14251;SDS011;7210;51.502;10.722;2023-07-16T14:03:17;4.43;;;2.92;;
14251;SDS011;7210;51.502;10.722;2023-07-16T14:05:44;2.85;;;2.55;;
14251;SDS011;7210;51.502;10.722;2023-07-16T14:08:12;3.90;;;2.75;;
14251;SDS011;7210;51.502;10.722;2023-07-16T14:10:39;5.93;;;2.53;;
14251;SDS011;7210;51.502;10.722;2023-07-16T14:13:11;4.22;;;2.70;;
14251;SDS011;7210;51.502;10.722;2023-07-16T14:15:42;4.10;;;2.60;;
14251;SDS011;7210;51.502;10.722;2023-07-16T14:18:11;3.28;;;2.80;;
14251;SDS011;7210;51.502;10.722;2023-07-16T14:20:41;3.63;;;2.50;;
14251;SDS011;7210;51.502;10.722;2023-07-16T14:23:09;5.38;;;2.85;;
14251;SDS011;7210;51.502;10.722;2023-07-16T14:25:41;6.07;;;2.97;;
14251;SDS011;7210;51.502;10.722;2023-07-16T14:28:11;3.65;;;2.58;;
14251;SDS011;7210;51.502;10.722;2023-07-16T14:30:38;4.03;;;2.60;;
14251;SDS011;7210;51.502;10.722;2023-07-16T14:33:19;4.28;;;2.90;;
14251;SDS011;7210;51.502;10.722;2023-07-16T14:35:47;5.05;;;3.70;;
14251;SDS011;7210;51.502;10.722;2023-07-16T14:38:24;5.68;;;2.78;;
14251;SDS011;7210;51.502;10.722;2023-07-16T14:40:53;3.78;;;3.10;;
14251;SDS011;7210;51.502;10.722;2023-07-16T14:43:30;3.13;;;2.83;;
14251;SDS011;7210;51.502;10.722;2023-07-16T14:46:03;3.85;;;3.03;;
14251;SDS011;7210;51.502;10.722;2023-07-16T14:48:37;6.40;;;3.63;;
14251;SDS011;7210;51.502;10.722;2023-07-16T14:51:04;5.35;;;2.78;;
14251;SDS011;7210;51.502;10.722;2023-07-16T14:53:31;3.47;;;2.55;;
14251;SDS011;7210;51.502;10.722;2023-07-16T14:56:00;3.83;;;2.72;;
14251;SDS011;7210;51.502;10.722;2023-07-16T14:58:34;3.60;;;2.80;;
14251;SDS011;7210;51.502;10.722;2023-07-16T15:01:17;4.13;;;2.83;;
14251;SDS011;7210;51.502;10.722;2023-07-16T15:03:49;4.55;;;3.05;;
14251;SDS011;7210;51.502;10.722;2023-07-16T15:06:17;4.07;;;2.97;;
14251;SDS011;7210;51.502;10.722;2023-07-16T15:08:44;4.50;;;2.80;;
14251;SDS011;7210;51.502;10.722;2023-07-16T15:11:13;5.60;;;3.25;;
14251;SDS011;7210;51.502;10.722;2023-07-16T15:13:53;3.72;;;3.17;;
14251;SDS011;7210;51.502;10.722;2023-07-16T15:16:29;7.40;;;3.05;;
14251;SDS011;7210;51.502;10.722;2023-07-16T15:18:58;5.63;;;3.80;;
14251;SDS011;7210;51.502;10.722;2023-07-16T15:21:41;3.72;;;2.75;;
14251;SDS011;7210;51.502;10.722;2023-07-16T15:24:11;3.90;;;2.90;;
14251;SDS011;7210;51.502;10.722;2023-07-16T15:26:39;3.67;;;2.72;;
14251;SDS011;7210;51.502;10.722;2023-07-16T15:32:17;3.42;;;2.72;;
14251;SDS011;7210;51.502;10.722;2023-07-16T15:34:48;5.93;;;2.60;;
14251;SDS011;7210;51.502;10.722;2023-07-16T15:37:17;5.80;;;3.05;;